Time;durP1;ratioP1;P1;durP2;ratioP2;P2;SDS_P1;SDS_P2;PMS_P1;PMS_P2;Temp;Humidity;BMP_temperature;BMP_pressure;BME280_temperature;BME280_humidity;BME280_pressure;Samples;Min_cycle;Max_cycle;Signal;HPM_P1;HPM_P2
2022/01/21 00:01:11;;;;;;;17.45;3.00;;;3.20;99.90;;;;;;4944049;28;20063;-72
2022/01/21 00:03:37;;;;;;;22.23;3.55;;;3.20;99.90;;;;;;4945888;28;20047;-73
2022/01/21 00:06:06;;;;;;;15.00;2.90;;;3.30;99.90;;;;;;4948243;28;20059;-72
2022/01/21 00:08:39;;;;;;;29.55;4.00;;;3.30;99.90;;;;;;4947987;28;20147;-70
2022/01/21 00:11:05;;;;;;;9.23;2.72;;;3.40;99.90;;;;;;4946144;28;20039;-72
2022/01/21 00:13:34;;;;;;;15.75;2.47;;;3.30;99.90;;;;;;4950987;28;20079;-72
2022/01/21 00:16:11;;;;;;;13.77;2.15;;;3.30;99.90;;;;;;4950794;28;20097;-71
2022/01/21 00:18:39;;;;;;;16.27;2.33;;;3.30;99.90;;;;;;4944593;28;20043;-72
2022/01/21 00:32:07;;;;;;;13.38;1.42;;;2.80;99.90;;;;;;4946281;28;20535;-72
2022/01/21 00:34:33;;;;;;;8.93;1.90;;;2.80;99.90;;;;;;4948693;28;20047;-73
2022/01/21 00:36:58;;;;;;;12.32;2.03;;;2.70;99.90;;;;;;4948258;28;20043;-73
2022/01/21 00:39:27;;;;;;;11.45;1.83;;;2.70;99.90;;;;;;4948163;28;20499;-74
2022/01/21 00:42:12;;;;;;;11.40;2.00;;;2.70;99.90;;;;;;4947448;28;20043;-73
2022/01/21 00:44:38;;;;;;;13.05;1.95;;;2.70;99.90;;;;;;4947348;28;20051;-72
2022/01/21 00:47:06;;;;;;;10.38;2.75;;;2.70;99.90;;;;;;4948016;28;20066;-73
2022/01/21 00:49:31;;;;;;;14.75;3.58;;;2.70;99.90;;;;;;4949548;28;20183;-74
2022/01/21 00:51:57;;;;;;;13.63;2.42;;;2.70;99.90;;;;;;4948514;28;20155;-72
2022/01/21 00:54:25;;;;;;;17.05;2.20;;;2.70;99.90;;;;;;4944937;28;20051;-72
2022/01/21 00:56:51;;;;;;;13.82;2.53;;;2.70;99.90;;;;;;4944108;28;20106;-73
2022/01/21 00:59:16;;;;;;;13.32;2.92;;;2.80;99.90;;;;;;4946599;28;20047;-69
2022/01/21 01:01:42;;;;;;;17.75;2.58;;;2.90;99.90;;;;;;4945096;28;20095;-71
2022/01/21 01:04:08;;;;;;;13.07;1.83;;;3.00;99.90;;;;;;4944292;28;20058;-72
2022/01/21 01:06:33;;;;;;;18.92;2.70;;;3.10;99.90;;;;;;4947464;28;20050;-72
2022/01/21 01:08:59;;;;;;;18.52;2.05;;;3.00;99.90;;;;;;4946467;28;20157;-73
2022/01/21 01:11:44;;;;;;;9.52;1.92;;;3.10;99.90;;;;;;4949161;28;20047;-71
2022/01/21 01:22:59;;;;;;;10.43;2.10;;;3.00;99.90;;;;;;4940048;28;20054;-73
2022/01/21 01:28:09;;;;;;;15.05;2.90;;;3.00;99.90;;;;;;4953187;28;20394;-72
2022/01/21 01:30:36;;;;;;;13.02;2.00;;;3.10;99.90;;;;;;4951198;28;20132;-73
2022/01/21 01:33:05;;;;;;;23.63;2.70;;;3.10;99.90;;;;;;4950588;28;20035;-73
2022/01/21 01:35:33;;;;;;;12.02;2.28;;;3.20;99.90;;;;;;4949541;28;20464;-72
2022/01/21 01:40:49;;;;;;;10.65;2.25;;;3.20;99.90;;;;;;4946964;28;20051;-73
2022/01/21 01:51:25;;;;;;;14.95;1.92;;;3.20;99.90;;;;;;4949536;28;20047;-73
2022/01/21 01:53:58;;;;;;;17.90;2.35;;;3.20;99.90;;;;;;4951618;28;20122;-72
2022/01/21 01:56:28;;;;;;;13.10;2.47;;;3.20;99.90;;;;;;4945276;28;20078;-72
2022/01/21 01:58:54;;;;;;;14.30;2.30;;;3.30;99.90;;;;;;4949934;28;20183;-72
2022/01/21 02:01:20;;;;;;;16.50;3.30;;;3.30;99.90;;;;;;4948540;28;20618;-72
2022/01/21 02:03:45;;;;;;;17.08;2.75;;;3.30;99.90;;;;;;4950076;28;20047;-71
2022/01/21 02:06:11;;;;;;;26.63;3.72;;;3.20;99.90;;;;;;4952799;28;20062;-73
2022/01/21 02:08:37;;;;;;;24.17;2.78;;;3.20;99.90;;;;;;4951297;28;20170;-71
2022/01/21 02:11:03;;;;;;;21.88;3.10;;;3.20;99.90;;;;;;4950528;28;20545;-71
2022/01/21 02:13:32;;;;;;;20.77;3.55;;;3.20;99.90;;;;;;4948550;28;20050;-71
2022/01/21 02:16:03;;;;;;;13.88;2.17;;;3.30;99.90;;;;;;4951099;28;20061;-71
2022/01/21 02:21:31;;;;;;;19.35;2.22;;;3.40;99.90;;;;;;4952610;28;20043;-73
2022/01/21 02:24:00;;;;;;;15.05;3.00;;;3.50;99.90;;;;;;4949283;28;20043;-73
2022/01/21 02:26:26;;;;;;;7.03;1.50;;;3.60;99.90;;;;;;4944744;28;20054;-74
2022/01/21 02:28:53;;;;;;;15.48;1.60;;;3.60;99.90;;;;;;4949760;28;20082;-71
2022/01/21 02:31:19;;;;;;;8.15;1.63;;;3.60;99.90;;;;;;4954506;28;20669;-72
2022/01/21 02:33:45;;;;;;;8.60;1.60;;;3.60;99.90;;;;;;4951905;28;20043;-72
2022/01/21 02:36:10;;;;;;;9.35;1.73;;;3.50;99.90;;;;;;4947771;28;20102;-72
2022/01/21 02:38:36;;;;;;;6.13;1.20;;;3.60;99.90;;;;;;4951038;28;20043;-73
2022/01/21 02:41:02;;;;;;;4.65;1.40;;;3.50;99.90;;;;;;4949945;28;20074;-72
2022/01/21 02:43:28;;;;;;;4.70;1.25;;;3.50;99.90;;;;;;4948168;28;20051;-72
2022/01/21 02:45:53;;;;;;;6.93;0.95;;;3.40;99.90;;;;;;4944725;28;20066;-72
2022/01/21 02:48:21;;;;;;;10.80;1.55;;;3.30;99.90;;;;;;4949987;28;20056;-70
2022/01/21 02:50:47;;;;;;;8.77;1.50;;;3.30;99.90;;;;;;4949136;28;20050;-72
2022/01/21 02:55:44;;;;;;;9.18;1.40;;;3.20;99.90;;;;;;4948264;28;20046;-71
2022/01/21 02:58:09;;;;;;;7.95;1.50;;;3.20;99.90;;;;;;4955860;28;20066;-72
2022/01/21 03:00:35;;;;;;;6.07;1.40;;;3.10;99.90;;;;;;4945112;28;20563;-72
2022/01/21 03:03:04;;;;;;;13.65;1.85;;;3.00;99.90;;;;;;4947685;28;20180;-72
2022/01/21 03:05:30;;;;;;;7.90;1.30;;;2.90;99.90;;;;;;4943547;28;20082;-71
2022/01/21 03:07:56;;;;;;;7.50;1.48;;;2.80;99.90;;;;;;4945985;28;20534;-72
2022/01/21 03:10:26;;;;;;;17.88;1.88;;;2.70;99.90;;;;;;4948376;28;20051;-72
2022/01/21 03:12:52;;;;;;;10.88;1.52;;;2.60;99.90;;;;;;4954558;28;20039;-72
2022/01/21 03:15:18;;;;;;;15.45;2.10;;;2.50;99.90;;;;;;4947169;28;20083;-73
2022/01/21 03:17:44;;;;;;;7.78;1.40;;;2.50;99.90;;;;;;4946652;28;20126;-72
2022/01/21 03:20:10;;;;;;;16.17;2.08;;;2.40;99.90;;;;;;4946656;28;20384;-72
2022/01/21 03:22:36;;;;;;;16.92;3.10;;;2.40;99.90;;;;;;4946741;28;20040;-72
2022/01/21 03:25:07;;;;;;;20.25;2.03;;;2.50;99.90;;;;;;4940238;28;20043;-72
2022/01/21 03:27:33;;;;;;;11.50;1.98;;;2.50;99.90;;;;;;4933822;28;20082;-72
2022/01/21 03:29:58;;;;;;;9.80;1.60;;;2.50;99.90;;;;;;4947606;28;20142;-73
2022/01/21 03:32:26;;;;;;;12.38;1.70;;;2.50;99.90;;;;;;4945142;28;20122;-73
2022/01/21 03:34:51;;;;;;;12.90;3.22;;;2.50;99.90;;;;;;4948035;28;20051;-73
2022/01/21 03:37:17;;;;;;;22.58;2.22;;;2.50;99.90;;;;;;4947448;28;20054;-74
2022/01/21 03:39:43;;;;;;;17.88;3.75;;;2.50;99.90;;;;;;4947318;28;20430;-73
2022/01/21 03:42:08;;;;;;;13.20;1.77;;;2.50;99.90;;;;;;4949046;28;20043;-72
2022/01/21 03:44:34;;;;;;;22.10;5.45;;;2.50;99.90;;;;;;4951609;28;20502;-73
2022/01/21 03:47:00;;;;;;;13.88;2.15;;;2.50;99.90;;;;;;4952407;28;20576;-74
2022/01/21 03:49:28;;;;;;;12.98;2.70;;;2.50;99.90;;;;;;4935700;28;20055;-73
2022/01/21 03:51:53;;;;;;;13.68;3.22;;;2.60;99.90;;;;;;4952347;28;20093;-73
2022/01/21 03:54:19;;;;;;;16.02;2.60;;;2.60;99.90;;;;;;4948130;28;20122;-72
2022/01/21 03:56:45;;;;;;;19.33;2.22;;;2.60;99.90;;;;;;4941863;28;20183;-73
2022/01/21 03:59:10;;;;;;;12.60;1.77;;;2.60;99.90;;;;;;4952041;28;20031;-73
2022/01/21 04:01:36;;;;;;;18.38;3.38;;;2.60;99.90;;;;;;4946235;28;20055;-73
2022/01/21 04:04:02;;;;;;;8.73;1.45;;;2.60;99.90;;;;;;4947901;28;20617;-73
2022/01/21 04:06:28;;;;;;;15.48;2.55;;;2.60;99.90;;;;;;4949629;28;20105;-73
2022/01/21 04:08:53;;;;;;;11.40;1.60;;;2.60;99.90;;;;;;4949058;28;20054;-73
2022/01/21 04:11:19;;;;;;;18.10;1.80;;;2.60;99.90;;;;;;4948516;28;20058;-74
2022/01/21 04:13:46;;;;;;;14.18;2.00;;;2.50;99.90;;;;;;4945355;28;20085;-72
2022/01/21 04:16:11;;;;;;;13.15;1.98;;;2.50;99.90;;;;;;4942648;28;20445;-73
2022/01/21 04:18:37;;;;;;;9.15;1.80;;;2.50;99.90;;;;;;4948954;28;20043;-73
2022/01/21 04:21:03;;;;;;;9.60;2.10;;;2.50;99.90;;;;;;4946665;28;20039;-72
2022/01/21 04:23:28;;;;;;;10.65;1.52;;;2.40;99.90;;;;;;4950213;28;20121;-74
2022/01/21 04:25:54;;;;;;;12.52;1.58;;;2.50;99.90;;;;;;4942472;28;20055;-74
2022/01/21 04:28:20;;;;;;;24.70;3.65;;;2.50;99.90;;;;;;4944491;28;20140;-73
2022/01/21 04:30:46;;;;;;;11.98;1.65;;;2.50;99.90;;;;;;4944301;28;20503;-72
2022/01/21 04:33:12;;;;;;;14.43;1.92;;;2.50;99.90;;;;;;4948639;28;20134;-73
2022/01/21 04:35:39;;;;;;;12.70;1.90;;;2.50;99.90;;;;;;4942956;28;20077;-73
2022/01/21 04:38:08;;;;;;;13.27;2.67;;;2.50;99.90;;;;;;4942753;28;20117;-73
2022/01/21 04:40:39;;;;;;;18.65;3.35;;;2.60;99.90;;;;;;4942906;28;20079;-74
2022/01/21 04:48:35;;;;;;;12.10;1.52;;;2.80;99.90;;;;;;4946203;28;20051;-74
2022/01/21 04:51:26;;;;;;;9.02;1.80;;;2.80;99.90;;;;;;4950873;28;20057;-73
2022/01/21 04:53:51;;;;;;;7.40;1.73;;;2.80;99.90;;;;;;4946626;28;20430;-72
2022/01/21 04:56:17;;;;;;;11.90;1.60;;;2.90;99.90;;;;;;4949318;28;20061;-74
2022/01/21 04:58:44;;;;;;;9.10;1.83;;;2.90;99.90;;;;;;4949551;28;20126;-73
2022/01/21 05:01:11;;;;;;;12.73;2.17;;;3.00;99.90;;;;;;4946923;28;20035;-72
2022/01/21 05:03:39;;;;;;;12.63;1.38;;;3.00;99.90;;;;;;4951019;28;20055;-73
2022/01/21 05:06:05;;;;;;;11.02;1.33;;;3.00;99.90;;;;;;4949924;28;20118;-71
2022/01/21 05:08:54;;;;;;;12.52;1.60;;;3.00;99.90;;;;;;4950473;28;20058;-73
2022/01/21 05:11:17;;;;;;;9.15;1.02;;;3.00;99.90;;;;;;4946474;28;20046;-72
2022/01/21 05:13:52;;;;;;;6.57;1.00;;;3.00;99.90;;;;;;4953351;28;20095;-73
2022/01/21 05:18:52;;;;;;;4.82;1.15;;;3.10;99.90;;;;;;4945982;28;20423;-73
2022/01/21 05:21:18;;;;;;;12.52;2.55;;;3.00;99.90;;;;;;4949405;28;20048;-72
2022/01/21 05:23:44;;;;;;;11.50;1.83;;;3.10;99.90;;;;;;4949168;28;20047;-74
2022/01/21 05:26:11;;;;;;;10.27;1.67;;;3.20;99.90;;;;;;4954350;28;20055;-72
2022/01/21 05:28:37;;;;;;;15.13;2.08;;;3.20;99.90;;;;;;4954494;28;20062;-73
2022/01/21 05:31:03;;;;;;;9.27;2.00;;;3.30;99.90;;;;;;4951046;28;20126;-74
2022/01/21 05:33:28;;;;;;;10.90;1.77;;;3.30;99.90;;;;;;4947532;28;20447;-73
2022/01/21 05:35:54;;;;;;;15.88;2.65;;;3.30;99.90;;;;;;4952283;28;20126;-74
2022/01/21 05:38:20;;;;;;;16.23;2.75;;;3.30;99.90;;;;;;4947727;28;20047;-72
2022/01/21 05:40:46;;;;;;;10.80;2.15;;;3.30;99.90;;;;;;4947244;28;20047;-73
2022/01/21 05:43:12;;;;;;;15.18;3.47;;;3.30;99.90;;;;;;4948809;28;20051;-72
2022/01/21 05:48:22;;;;;;;10.70;1.40;;;3.20;99.90;;;;;;4943660;28;20542;-73
2022/01/21 05:50:47;;;;;;;17.75;1.70;;;3.20;99.90;;;;;;4951002;28;20150;-74
2022/01/21 05:53:13;;;;;;;15.02;1.83;;;3.10;99.90;;;;;;4951364;28;20047;-73
2022/01/21 05:55:41;;;;;;;13.27;1.83;;;3.00;99.90;;;;;;4950772;28;20043;-73
2022/01/21 05:58:12;;;;;;;11.60;2.05;;;3.00;99.90;;;;;;4946154;28;20050;-74
2022/01/21 06:00:39;;;;;;;10.13;1.65;;;3.00;99.90;;;;;;4945363;28;20031;-73
2022/01/21 06:03:05;;;;;;;9.52;1.70;;;2.90;99.90;;;;;;4943592;28;20051;-73
2022/01/21 06:05:33;;;;;;;13.60;2.17;;;2.90;99.90;;;;;;4946688;28;20450;-73
2022/01/21 06:08:00;;;;;;;13.50;1.60;;;2.90;99.90;;;;;;4946967;28;20043;-74
2022/01/21 06:10:26;;;;;;;10.88;2.08;;;2.80;99.90;;;;;;4947429;28;20073;-73
2022/01/21 06:12:56;;;;;;;10.15;1.58;;;2.80;99.90;;;;;;4926034;28;20051;-73
2022/01/21 06:15:25;;;;;;;10.65;1.75;;;2.70;99.90;;;;;;4946092;28;20097;-73
2022/01/21 06:17:51;;;;;;;16.00;1.92;;;2.60;99.90;;;;;;4947925;28;20146;-73
2022/01/21 06:20:16;;;;;;;16.92;2.22;;;2.70;99.90;;;;;;4948081;28;20202;-73
2022/01/21 06:22:42;;;;;;;15.32;3.05;;;2.70;99.90;;;;;;4946185;28;20050;-73
2022/01/21 06:25:08;;;;;;;13.43;2.13;;;2.80;99.90;;;;;;4949509;28;20059;-73
2022/01/21 06:27:36;;;;;;;25.92;2.88;;;2.80;99.90;;;;;;4944120;28;20051;-73
2022/01/21 06:30:03;;;;;;;23.42;3.13;;;2.80;99.90;;;;;;4939047;28;20109;-72
2022/01/21 06:32:29;;;;;;;17.00;2.45;;;2.80;99.90;;;;;;4947847;28;20508;-72
2022/01/21 06:34:55;;;;;;;16.95;3.30;;;2.90;99.90;;;;;;4942588;28;20058;-73
2022/01/21 06:37:21;;;;;;;15.60;2.97;;;2.90;99.90;;;;;;4945754;28;20105;-71
2022/01/21 06:39:46;;;;;;;16.65;3.20;;;2.90;99.90;;;;;;4949050;28;20055;-71
2022/01/21 06:42:12;;;;;;;19.85;2.75;;;2.90;99.90;;;;;;4941821;28;20043;-71
2022/01/21 06:44:37;;;;;;;10.95;2.90;;;2.90;99.90;;;;;;4945400;28;20044;-69
2022/01/21 06:47:07;;;;;;;19.67;2.70;;;2.90;99.90;;;;;;4950650;28;20061;-73
2022/01/21 06:49:32;;;;;;;22.50;3.42;;;2.90;99.90;;;;;;4947158;28;20055;-73
2022/01/21 06:51:58;;;;;;;21.98;2.42;;;2.90;99.90;;;;;;4943054;28;20039;-75
2022/01/21 06:54:24;;;;;;;23.95;2.88;;;2.90;99.90;;;;;;4947524;28;20419;-74
2022/01/21 06:56:49;;;;;;;16.65;3.60;;;2.90;99.90;;;;;;4943059;28;20043;-72
2022/01/21 06:59:15;;;;;;;18.60;3.15;;;2.90;99.90;;;;;;4947616;28;20504;-73
2022/01/21 07:01:41;;;;;;;17.63;2.47;;;2.90;99.90;;;;;;4950769;28;20042;-73
2022/01/21 07:04:06;;;;;;;14.18;2.78;;;2.90;99.90;;;;;;4949766;28;20141;-74
2022/01/21 07:06:32;;;;;;;26.23;3.50;;;2.90;99.90;;;;;;4945828;28;20561;-74
2022/01/21 07:08:57;;;;;;;20.20;3.28;;;2.90;99.90;;;;;;4950854;28;20047;-73
2022/01/21 07:11:23;;;;;;;16.88;2.60;;;2.90;99.90;;;;;;4947176;28;20055;-73
2022/01/21 07:13:49;;;;;;;17.08;2.42;;;2.90;99.90;;;;;;4948640;28;20035;-74
2022/01/21 07:16:14;;;;;;;19.23;3.38;;;2.80;99.90;;;;;;4948289;28;20134;-74
2022/01/21 07:18:40;;;;;;;14.20;3.10;;;2.80;99.90;;;;;;4951609;28;20500;-73
2022/01/21 07:21:05;;;;;;;17.98;2.83;;;2.80;99.90;;;;;;4947446;28;20058;-73
2022/01/21 07:23:31;;;;;;;12.88;2.75;;;2.80;99.90;;;;;;4945031;28;20079;-73
2022/01/21 07:25:57;;;;;;;20.27;3.58;;;2.80;99.90;;;;;;4942658;28;20042;-71
2022/01/21 07:28:25;;;;;;;20.95;4.13;;;2.80;99.90;;;;;;4939128;28;20619;-71
2022/01/21 07:30:51;;;;;;;23.48;3.22;;;2.80;99.90;;;;;;4944255;28;20700;-72
2022/01/21 07:33:17;;;;;;;14.98;2.38;;;2.90;99.90;;;;;;4949531;28;20511;-72
2022/01/21 07:35:43;;;;;;;21.00;3.45;;;2.90;99.90;;;;;;4950043;28;20058;-73
2022/01/21 07:38:09;;;;;;;17.00;2.53;;;2.90;99.90;;;;;;4947947;28;20039;-73
2022/01/21 07:40:35;;;;;;;16.17;2.22;;;2.90;99.90;;;;;;4946542;28;20047;-73
2022/01/21 07:43:00;;;;;;;15.07;2.80;;;2.90;99.90;;;;;;4947350;28;20119;-74
2022/01/21 07:45:26;;;;;;;20.25;2.60;;;2.90;99.90;;;;;;4948959;28;20045;-75
2022/01/21 07:47:54;;;;;;;23.27;3.55;;;2.80;99.90;;;;;;4941583;28;20114;-71
2022/01/21 07:50:20;;;;;;;18.63;3.15;;;2.90;99.90;;;;;;4948181;28;20044;-73
2022/01/21 07:52:45;;;;;;;19.40;3.25;;;2.90;99.90;;;;;;4953683;28;20058;-73
2022/01/21 07:55:11;;;;;;;20.92;3.17;;;3.00;99.90;;;;;;4944427;28;20403;-73
2022/01/21 07:57:37;;;;;;;22.88;2.70;;;3.10;99.90;;;;;;4950637;28;20047;-73
2022/01/21 08:00:04;;;;;;;20.40;3.65;;;3.20;99.90;;;;;;4949291;28;20043;-72
2022/01/21 08:02:31;;;;;;;23.05;2.95;;;3.30;99.90;;;;;;4952085;28;20043;-72
2022/01/21 08:04:57;;;;;;;20.42;2.85;;;3.40;99.90;;;;;;4947763;28;20149;-72
2022/01/21 08:07:23;;;;;;;21.92;4.28;;;3.50;99.90;;;;;;4946762;28;20055;-71
2022/01/21 08:09:49;;;;;;;27.00;3.08;;;3.60;99.90;;;;;;4950752;28;20079;-72
2022/01/21 08:12:16;;;;;;;24.23;3.20;;;3.70;99.90;;;;;;4943554;28;20039;-72
2022/01/21 08:14:43;;;;;;;24.80;3.33;;;3.80;99.90;;;;;;4946020;28;20048;-72
2022/01/21 08:17:08;;;;;;;24.55;3.38;;;3.80;99.90;;;;;;4945331;28;20047;-72
2022/01/21 08:19:34;;;;;;;28.67;3.75;;;3.80;99.90;;;;;;4947519;28;20047;-72
2022/01/21 08:22:00;;;;;;;25.30;3.67;;;3.80;99.90;;;;;;4945585;28;20176;-74
2022/01/21 08:24:26;;;;;;;29.50;4.45;;;3.80;99.90;;;;;;4949502;28;20051;-73
2022/01/21 08:26:51;;;;;;;29.20;5.10;;;3.70;99.90;;;;;;4947575;28;20040;-72
2022/01/21 08:29:17;;;;;;;29.88;4.43;;;3.70;99.90;;;;;;4948101;28;20039;-73
2022/01/21 08:31:44;;;;;;;22.10;3.13;;;3.70;99.90;;;;;;4945180;28;20410;-73
2022/01/21 08:34:11;;;;;;;31.63;3.88;;;3.60;99.90;;;;;;4945091;28;20311;-72
2022/01/21 08:36:38;;;;;;;29.13;3.80;;;3.70;99.90;;;;;;4949799;28;20074;-72
2022/01/21 08:39:05;;;;;;;27.35;3.33;;;3.60;99.90;;;;;;4942910;28;20039;-74
2022/01/21 08:41:32;;;;;;;23.35;3.28;;;3.60;99.90;;;;;;4952928;28;20054;-74
2022/01/21 08:43:57;;;;;;;33.35;3.83;;;3.60;99.90;;;;;;4951401;28;20047;-73
2022/01/21 08:46:23;;;;;;;23.98;2.88;;;3.60;99.90;;;;;;4945784;28;20055;-75
2022/01/21 08:48:49;;;;;;;18.30;3.03;;;3.60;99.90;;;;;;4941181;28;20047;-74
2022/01/21 08:51:23;;;;;;;32.72;4.70;;;3.60;99.90;;;;;;4946265;28;20083;-73
2022/01/21 08:53:48;;;;;;;20.73;3.40;;;3.70;99.90;;;;;;4946663;28;20051;-73
2022/01/21 08:56:16;;;;;;;28.23;3.17;;;3.70;99.90;;;;;;4946554;28;20066;-73
2022/01/21 08:58:43;;;;;;;21.15;2.92;;;3.70;99.90;;;;;;4944342;28;20049;-73
2022/01/21 09:01:10;;;;;;;25.63;3.13;;;3.70;99.90;;;;;;4940520;28;20095;-73
2022/01/21 09:03:36;;;;;;;24.23;3.58;;;3.80;99.90;;;;;;4946379;28;20051;-73
2022/01/21 09:06:03;;;;;;;29.00;3.03;;;3.90;99.90;;;;;;4945101;28;20051;-73
2022/01/21 09:08:30;;;;;;;23.50;3.95;;;4.00;99.90;;;;;;4943773;28;20107;-73
2022/01/21 09:10:58;;;;;;;21.60;3.67;;;4.10;99.90;;;;;;4947710;28;20492;-75
2022/01/21 09:13:28;;;;;;;30.88;3.50;;;4.30;99.90;;;;;;4942684;28;20478;-73
2022/01/21 09:15:58;;;;;;;27.50;4.20;;;4.30;99.90;;;;;;4936983;28;20040;-72
2022/01/21 09:18:25;;;;;;;25.98;4.18;;;4.40;99.90;;;;;;4948313;28;20043;-73
2022/01/21 09:20:51;;;;;;;25.45;3.33;;;4.50;99.90;;;;;;4945333;28;20110;-72
2022/01/21 09:23:16;;;;;;;39.35;3.78;;;4.60;99.90;;;;;;4943914;28;20066;-72
2022/01/21 09:25:42;;;;;;;28.58;3.25;;;4.60;99.90;;;;;;4944582;28;20043;-72
2022/01/21 09:28:08;;;;;;;26.27;3.50;;;4.70;99.90;;;;;;4941834;28;20585;-71
2022/01/21 09:30:34;;;;;;;23.83;3.42;;;4.80;99.90;;;;;;4947784;28;20043;-73
2022/01/21 09:33:00;;;;;;;15.68;2.85;;;4.90;99.90;;;;;;4948904;28;20670;-72
2022/01/21 09:35:26;;;;;;;20.88;3.05;;;5.00;99.90;;;;;;4947943;28;20521;-73
2022/01/21 09:37:55;;;;;;;27.63;3.90;;;5.10;99.90;;;;;;4926722;28;20090;-73
2022/01/21 09:40:30;;;;;;;15.73;2.47;;;5.20;99.90;;;;;;4943818;28;20054;-73
2022/01/21 09:42:57;;;;;;;17.98;2.20;;;5.40;99.90;;;;;;4949549;28;20087;-72
2022/01/21 09:45:24;;;;;;;23.23;2.53;;;5.50;99.90;;;;;;4952443;28;20110;-72
2022/01/21 09:47:54;;;;;;;15.70;3.08;;;5.60;99.90;;;;;;4952399;28;20106;-72
2022/01/21 09:50:21;;;;;;;20.15;2.90;;;5.70;99.90;;;;;;4951620;28;20042;-71
2022/01/21 09:52:52;;;;;;;17.60;2.60;;;5.80;99.90;;;;;;4949043;28;20083;-72
2022/01/21 09:55:21;;;;;;;18.42;2.92;;;5.80;99.90;;;;;;4948235;28;20043;-73
2022/01/21 09:57:56;;;;;;;11.18;2.42;;;5.90;99.90;;;;;;4945354;28;20055;-72
2022/01/21 10:00:25;;;;;;;14.48;2.20;;;5.90;99.90;;;;;;4951704;28;20059;-72
2022/01/21 10:02:56;;;;;;;13.52;2.65;;;6.00;99.90;;;;;;4950495;28;20046;-72
2022/01/21 10:05:22;;;;;;;21.52;2.50;;;6.00;99.90;;;;;;4950184;28;20085;-73
2022/01/21 10:07:49;;;;;;;24.15;3.88;;;6.10;99.90;;;;;;4951100;28;20043;-72
2022/01/21 10:10:16;;;;;;;18.60;3.42;;;6.20;99.90;;;;;;4950774;28;20059;-72
2022/01/21 10:12:45;;;;;;;21.52;2.97;;;6.10;99.90;;;;;;4950078;28;20106;-72
2022/01/21 10:15:11;;;;;;;24.92;3.97;;;6.20;99.90;;;;;;4947555;28;20048;-71
2022/01/21 10:17:38;;;;;;;19.20;2.83;;;6.20;99.90;;;;;;4948270;28;20046;-73
2022/01/21 10:20:16;;;;;;;16.13;2.80;;;6.20;99.90;;;;;;4946504;28;20051;-72
2022/01/21 10:23:03;;;;;;;12.90;2.30;;;6.20;99.90;;;;;;4949738;28;20051;-73
2022/01/21 10:25:31;;;;;;;23.60;3.15;;;6.30;99.90;;;;;;4948494;28;20133;-73
2022/01/21 10:28:17;;;;;;;16.88;3.15;;;6.30;99.90;;;;;;4945025;28;20067;-73
2022/01/21 10:30:44;;;;;;;14.40;2.95;;;6.40;99.90;;;;;;4944444;28;20078;-73
2022/01/21 10:33:37;;;;;;;20.15;1.98;;;6.40;99.90;;;;;;4939687;28;20496;-72
2022/01/21 10:36:21;;;;;;;18.50;4.35;;;6.60;99.90;;;;;;4944624;28;20035;-73
2022/01/21 10:38:49;;;;;;;15.57;3.10;;;6.70;99.90;;;;;;4949240;28;20499;-71
2022/01/21 10:41:17;;;;;;;19.85;2.28;;;6.80;99.90;;;;;;4936061;28;20043;-72
2022/01/21 10:43:46;;;;;;;17.63;3.15;;;6.80;99.90;;;;;;4948736;28;20482;-74
2022/01/21 10:46:16;;;;;;;18.17;3.13;;;6.80;99.90;;;;;;4943911;28;20058;-73
2022/01/21 10:49:05;;;;;;;20.30;3.17;;;6.80;99.90;;;;;;4946271;28;20407;-73
2022/01/21 10:51:34;;;;;;;17.58;3.35;;;6.70;99.90;;;;;;4945184;28;20065;-72
2022/01/21 10:54:13;;;;;;;25.73;3.58;;;6.70;99.90;;;;;;4947783;28;20049;-73
2022/01/21 10:56:39;;;;;;;14.93;2.20;;;6.70;99.90;;;;;;4945016;28;20058;-73
2022/01/21 10:59:05;;;;;;;17.13;3.08;;;6.70;99.90;;;;;;4948095;28;20047;-72
2022/01/21 11:01:30;;;;;;;21.67;3.70;;;6.70;99.90;;;;;;4951481;28;20410;-74
2022/01/21 11:04:03;;;;;;;23.65;2.75;;;6.70;99.90;;;;;;4949943;28;20047;-73
2022/01/21 11:06:38;;;;;;;;;;;6.70;99.90;;;;;;4951740;28;20174;-73
2022/01/21 11:09:28;;;;;;;17.75;3.58;;;6.70;99.90;;;;;;4949972;28;20391;-73
2022/01/21 11:12:10;;;;;;;14.43;2.10;;;6.80;99.90;;;;;;4948038;28;20051;-73
2022/01/21 11:14:37;;;;;;;13.48;2.45;;;6.70;99.90;;;;;;4946667;28;20071;-74
2022/01/21 11:17:12;;;;;;;18.23;2.90;;;6.70;99.90;;;;;;4939124;28;20523;-74
2022/01/21 11:19:38;;;;;;;10.20;2.75;;;6.70;99.90;;;;;;4944813;28;20050;-74
2022/01/21 11:22:04;;;;;;;14.68;2.30;;;6.70;99.90;;;;;;4945065;28;20047;-73
2022/01/21 11:24:31;;;;;;;19.27;3.33;;;6.70;99.90;;;;;;4944872;28;20132;-73
2022/01/21 11:27:14;;;;;;;13.98;3.58;;;6.70;99.90;;;;;;4947741;28;20474;-73
2022/01/21 11:29:41;;;;;;;23.90;4.45;;;6.80;99.90;;;;;;4945176;28;20043;-73
2022/01/21 11:32:08;;;;;;;21.50;3.47;;;6.80;99.90;;;;;;4949472;28;20070;-73
2022/01/21 11:34:34;;;;;;;19.77;2.78;;;6.90;99.90;;;;;;4956395;28;20076;-74
2022/01/21 11:37:01;;;;;;;33.30;5.13;;;6.90;99.90;;;;;;4950832;28;20058;-73
2022/01/21 11:39:27;;;;;;;20.50;3.25;;;6.90;99.90;;;;;;4948208;28;20051;-73
2022/01/21 11:41:56;;;;;;;16.45;2.80;;;6.90;99.90;;;;;;4949701;28;20119;-74
2022/01/21 11:44:28;;;;;;;14.77;2.47;;;6.90;99.90;;;;;;4949938;28;20043;-73
2022/01/21 11:47:15;;;;;;;20.58;2.53;;;6.90;99.90;;;;;;4948813;28;20032;-73
2022/01/21 11:49:54;;;;;;;20.92;3.22;;;6.90;99.90;;;;;;4947547;28;20059;-73
2022/01/21 11:52:27;;;;;;;14.82;2.33;;;6.90;99.90;;;;;;4936487;28;20506;-73
2022/01/21 11:54:57;;;;;;;24.48;3.55;;;7.00;99.90;;;;;;4944541;28;20423;-74
2022/01/21 11:57:31;;;;;;;17.58;3.30;;;7.00;99.90;;;;;;4948431;28;20051;-72
2022/01/21 12:00:17;;;;;;;21.42;3.55;;;7.10;99.90;;;;;;4937706;28;20073;-73
2022/01/21 12:02:49;;;;;;;17.85;3.85;;;7.10;99.90;;;;;;4944986;28;20047;-73
2022/01/21 12:05:25;;;;;;;14.65;3.08;;;7.10;99.90;;;;;;4952288;28;20491;-73
2022/01/21 12:07:51;;;;;;;16.88;2.70;;;7.10;99.90;;;;;;4948411;28;20074;-73
2022/01/21 12:10:23;;;;;;;26.58;3.25;;;7.10;99.90;;;;;;4946217;28;20130;-73
2022/01/21 12:12:57;;;;;;;14.07;2.88;;;7.10;99.90;;;;;;4948907;28;20182;-74
2022/01/21 12:15:56;;;;;;;14.95;3.28;;;7.10;99.90;;;;;;4942790;28;20158;-72
2022/01/21 12:21:41;;;;;;;22.35;2.85;;;7.20;99.90;;;;;;4947716;28;20102;-72
2022/01/21 12:24:09;;;;;;;14.18;3.78;;;7.20;99.90;;;;;;4949843;28;20051;-71
2022/01/21 12:26:36;;;;;;;21.30;2.95;;;7.20;99.90;;;;;;4946889;28;20118;-72
2022/01/21 12:29:01;;;;;;;8.88;2.25;;;7.20;99.90;;;;;;4948465;28;20059;-71
2022/01/21 12:31:50;;;;;;;23.25;3.10;;;7.20;99.90;;;;;;4949583;28;20046;-72
2022/01/21 12:34:19;;;;;;;22.63;3.30;;;7.10;99.90;;;;;;4948116;28;20423;-71
2022/01/21 12:36:48;;;;;;;13.00;2.53;;;7.10;99.90;;;;;;4943892;28;20046;-74
2022/01/21 12:39:44;;;;;;;22.00;3.72;;;7.00;99.90;;;;;;4943323;28;20130;-74
2022/01/21 12:42:27;;;;;;;29.05;3.50;;;7.00;99.90;;;;;;4945866;28;20070;-74
2022/01/21 12:45:07;;;;;;;19.25;3.50;;;7.00;99.90;;;;;;4944999;28;20046;-75
2022/01/21 12:47:39;;;;;;;25.85;3.67;;;7.00;99.90;;;;;;4948278;28;20463;-73
2022/01/21 12:58:25;;;;;;;;;;;6.80;99.90;;;;;;4943269;28;25410;-73
2022/01/21 13:01:05;;;;;;;15.30;2.85;;;6.80;99.90;;;;;;4946469;28;20421;-74
2022/01/21 13:03:55;;;;;;;16.35;3.30;;;6.80;99.90;;;;;;4940972;28;20096;-74
2022/01/21 13:06:36;;;;;;;21.55;4.10;;;6.80;99.90;;;;;;4929805;28;20058;-74
2022/01/21 13:09:02;;;;;;;20.27;3.90;;;6.80;99.90;;;;;;4948596;28;20059;-69
2022/01/21 13:11:33;;;;;;;24.85;3.40;;;6.80;99.90;;;;;;4947251;28;20062;-73
2022/01/21 13:16:55;;;;;;;20.17;2.92;;;6.80;99.90;;;;;;4948506;28;20055;-74
2022/01/21 13:19:23;;;;;;;18.67;3.05;;;6.90;99.90;;;;;;4940115;28;20132;-74
2022/01/21 13:21:49;;;;;;;30.25;3.88;;;6.90;99.90;;;;;;4946522;28;20070;-73
2022/01/21 13:24:26;;;;;;;16.98;3.30;;;6.90;99.90;;;;;;4950643;28;20054;-74
2022/01/21 13:26:53;;;;;;;18.67;3.25;;;6.90;99.90;;;;;;4951493;28;20114;-74
2022/01/21 13:29:29;;;;;;;19.10;3.00;;;6.90;99.90;;;;;;4950596;28;20388;-74
2022/01/21 13:31:59;;;;;;;28.08;3.58;;;6.90;99.90;;;;;;4943800;28;20043;-74
2022/01/21 13:34:30;;;;;;;20.63;3.75;;;6.90;99.90;;;;;;4950686;28;20099;-74
2022/01/21 13:36:59;;;;;;;27.17;3.50;;;6.90;99.90;;;;;;4948882;28;20049;-75
2022/01/21 13:39:35;;;;;;;28.20;4.20;;;6.90;99.90;;;;;;4956552;28;20035;-74
2022/01/21 13:42:14;;;;;;;26.33;4.07;;;6.90;99.90;;;;;;4954149;28;20123;-73
2022/01/21 13:44:42;;;;;;;23.58;3.08;;;6.90;99.90;;;;;;4950941;28;20444;-73
2022/01/21 13:47:28;;;;;;;26.33;3.45;;;6.90;99.90;;;;;;4950567;28;20031;-73
2022/01/21 13:49:59;;;;;;;22.00;3.65;;;6.90;99.90;;;;;;4946359;28;20073;-73
2022/01/21 13:52:51;;;;;;;28.35;4.07;;;6.90;99.90;;;;;;4942064;28;20049;-73
2022/01/21 13:55:28;;;;;;;20.80;3.50;;;6.90;99.90;;;;;;4946046;28;20047;-73
2022/01/21 13:57:59;;;;;;;26.60;3.92;;;6.90;99.90;;;;;;4951346;28;20057;-73
2022/01/21 14:00:28;;;;;;;20.10;2.63;;;6.90;99.90;;;;;;4949276;28;20046;-73